메인 페이지
METAR-TAF:

METAR-TAF

공항 :

니아메, 니제르

위도: 13-29N, 경도: 002-10E, 고도: 223m

현재 날씨관측

예보는 40분 전, 09:00시(UTC)에 발표되었습니다.
남남서14kt
온도 31°C
습도 52%
기압 1012 hPa
시정 10km 이상
고도 3000ft 상공 구름 많음

METAR: DRRN 200900Z 21014KT 9999 BKN030 31/20 Q1012 BECMG 14025KT 1000 BLDU TS FEW033CB

시각: 10:40 (09:40 UTC)

예보

예보는 4 시간 40분 전, 05:00시(UTC)에 발표되었습니다.
예보 대상 시간: 20일 06시부터 21일 12시까지 (UTC)
서남서18kt
시정: 6000m
일시적
20일 06시부터 20일 08시까지 (UTC)
시정: 3000m
황사
확률 30% :
일시적
20일 08시부터 20일 12시까지 (UTC)
20kt, 순간 최대 풍속 35kt
시정: 2000m
고도 3000ft 상공 구름 조금
고도 4000ft 상공 구름 조금, 적란운.
날린먼지, 뇌우, 약한비

TAF: DRRN 200500Z 2006/2112 24018KT 6000 NSC TEMPO 2006/2008 3000 DU PROB30 TEMPO 2008/2012 10020G35KT 2000 BLDU -TSRA FEW030 FEW040CB

4,000개 이상의 공항 관측 자료 및 예보 (METAR 및 TAF 보고).

지도상에서 검색 가능한 기상관측소가 노란 점과 빨간 점으로 표시되어 있습니다.

기상관측소 명을 보려면 표시 위로 마우스를 이동하세요.

날씨 관측과 예보를 보려면 클릭하세요.

지도 변경 : 확대하려면 엑스 표시가 있는 녹색 버튼, 축소하려면 빼기 표시가 있는 녹색 버튼, 다음 페이지의 지도를 보려면 녹색 화살표를 클릭하세요.


METAR-TAF: